Time;durP1;ratioP1;P1;durP2;ratioP2;P2;SDS_P1;SDS_P2;PMS_P1;PMS_P2;Temp;Humidity;BMP_temperature;BMP_pressure;BME280_temperature;BME280_humidity;BME280_pressure;Samples;Min_cycle;Max_cycle;Signal;HPM_P1;HPM_P2
2023/06/04 00:00:04;;;;;;;1999.90;999.90;;;18.50;99.90;;;;;;4944605;28;20094;-73
2023/06/04 00:02:31;;;;;;;1999.90;999.90;;;18.70;99.90;;;;;;4947991;28;20083;-69
2023/06/04 00:04:58;;;;;;;1999.90;999.90;;;19.10;99.90;;;;;;4942359;28;20079;-73
2023/06/04 00:07:26;;;;;;;1999.90;999.90;;;19.40;99.90;;;;;;4943096;28;20030;-71
2023/06/04 00:09:54;;;;;;;1999.90;999.90;;;19.60;99.90;;;;;;4939581;28;20028;-72
2023/06/04 00:12:21;;;;;;;1999.90;999.90;;;19.60;99.90;;;;;;4929291;28;20386;-71
2023/06/04 00:14:48;;;;;;;1999.90;999.90;;;19.50;99.90;;;;;;4952416;28;20113;-71
2023/06/04 00:17:16;;;;;;;1999.90;999.90;;;19.40;99.90;;;;;;4942031;28;20031;-70
2023/06/04 00:19:43;;;;;;;1999.90;999.90;;;19.30;99.90;;;;;;4944828;28;20426;-69
2023/06/04 00:22:10;;;;;;;1999.90;999.90;;;19.20;99.90;;;;;;4946285;28;20367;-70
2023/06/04 00:24:41;;;;;;;1999.90;999.90;;;19.00;99.90;;;;;;4950408;28;20036;-71
2023/06/04 00:27:10;;;;;;;1999.90;999.90;;;18.90;99.90;;;;;;4947898;28;20034;-70
2023/06/04 00:29:37;;;;;;;1999.90;999.90;;;18.70;99.90;;;;;;4947209;28;20103;-74
2023/06/04 00:32:05;;;;;;;1999.90;999.90;;;18.60;99.90;;;;;;4942512;28;20035;-68
2023/06/04 00:34:32;;;;;;;1999.90;999.90;;;18.50;99.90;;;;;;4946715;28;20023;-69
2023/06/04 00:37:01;;;;;;;1999.90;999.90;;;18.20;99.90;;;;;;4935956;28;20100;-69
2023/06/04 00:39:29;;;;;;;1999.90;999.90;;;18.10;99.90;;;;;;4952414;28;20042;-69
2023/06/04 00:41:56;;;;;;;1999.90;999.90;;;17.80;99.90;;;;;;4944583;28;20375;-67
2023/06/04 00:44:25;;;;;;;1999.90;999.90;;;17.70;99.90;;;;;;4951708;28;20043;-68
2023/06/04 00:46:55;;;;;;;1999.90;999.90;;;17.60;99.90;;;;;;4947390;28;20572;-68
2023/06/04 00:49:23;;;;;;;1999.90;999.90;;;17.50;99.90;;;;;;4944740;28;20051;-68
2023/06/04 00:51:52;;;;;;;1999.90;999.90;;;17.40;99.90;;;;;;4928231;28;20130;-69
2023/06/04 00:54:20;;;;;;;1999.90;999.90;;;17.30;99.90;;;;;;4944389;28;20455;-71
2023/06/04 00:56:49;;;;;;;1999.90;999.90;;;17.40;99.90;;;;;;4945323;28;20058;-72
2023/06/04 00:59:16;;;;;;;1999.90;999.90;;;17.30;99.90;;;;;;4947574;28;20027;-74
2023/06/04 01:02:03;;;;;;;1999.90;999.90;;;17.30;99.90;;;;;;4945030;28;20031;-72
2023/06/04 01:04:50;;;;;;;1999.90;999.90;;;17.30;99.90;;;;;;4943540;28;20046;-72
2023/06/04 01:07:18;;;;;;;1999.90;999.90;;;17.40;99.90;;;;;;4944571;28;20063;-74
2023/06/04 01:09:46;;;;;;;1999.90;999.90;;;17.40;99.90;;;;;;4951478;28;20027;-82
2023/06/04 01:12:14;;;;;;;1999.90;999.90;;;17.50;99.90;;;;;;4948411;28;20481;-82
2023/06/04 01:14:42;;;;;;;1999.90;999.90;;;17.60;99.90;;;;;;4949671;28;20031;-76
2023/06/04 01:17:23;;;;;;;1999.90;999.90;;;17.60;99.90;;;;;;4951931;28;20031;-78
2023/06/04 01:20:05;;;;;;;1999.90;999.90;;;17.60;99.90;;;;;;4947388;28;20122;-77
2023/06/04 01:22:45;;;;;;;1999.90;999.90;;;17.70;99.90;;;;;;4947106;28;20035;-78
2023/06/04 01:25:34;;;;;;;1999.90;999.90;;;17.80;99.90;;;;;;4950210;28;20518;-75
2023/06/04 01:28:04;;;;;;;1999.90;999.90;;;17.90;99.90;;;;;;4950002;28;20110;-74
2023/06/04 01:30:34;;;;;;;1999.90;999.90;;;18.10;99.90;;;;;;4950071;28;20387;-76
2023/06/04 01:33:02;;;;;;;1999.90;999.90;;;18.10;99.90;;;;;;4942481;28;20035;-82
2023/06/04 01:35:33;;;;;;;1999.90;999.90;;;18.20;99.90;;;;;;4942721;28;20073;-75
2023/06/04 01:38:00;;;;;;;1999.90;999.90;;;18.20;99.90;;;;;;4942648;28;20397;-74
2023/06/04 01:40:28;;;;;;;1999.90;999.90;;;18.30;99.90;;;;;;4941481;28;20166;-76
2023/06/04 01:42:56;;;;;;;1999.90;999.90;;;18.30;99.90;;;;;;4946316;28;20367;-70
2023/06/04 01:45:24;;;;;;;1999.90;999.90;;;18.50;99.90;;;;;;4948690;28;20036;-74
2023/06/04 01:47:52;;;;;;;1999.90;999.90;;;18.50;99.90;;;;;;4950224;28;20475;-75
2023/06/04 01:50:20;;;;;;;1999.90;999.90;;;18.50;99.90;;;;;;4952099;28;20027;-80
2023/06/04 01:52:48;;;;;;;1999.90;999.90;;;18.50;99.90;;;;;;4954745;28;20065;-77
2023/06/04 01:55:17;;;;;;;1999.90;999.90;;;18.60;99.90;;;;;;4953752;28;20054;-74
2023/06/04 01:57:46;;;;;;;1999.90;999.90;;;18.70;99.90;;;;;;4958455;28;20102;-77
2023/06/04 02:00:14;;;;;;;1999.90;999.90;;;18.80;99.90;;;;;;4954597;28;20028;-73
2023/06/04 02:02:47;;;;;;;1999.90;999.90;;;18.90;99.90;;;;;;4953618;28;20092;-80
2023/06/04 02:05:15;;;;;;;1999.90;999.90;;;19.00;99.90;;;;;;4952014;28;20438;-70
2023/06/04 02:07:44;;;;;;;1999.90;999.90;;;19.10;99.90;;;;;;4948253;28;20030;-69
2023/06/04 02:10:14;;;;;;;1999.90;999.90;;;19.20;99.90;;;;;;4945669;28;20048;-68
2023/06/04 02:12:53;;;;;;;1999.90;999.90;;;19.30;99.90;;;;;;4946384;28;20031;-75
2023/06/04 02:15:21;;;;;;;1999.90;999.90;;;19.50;99.90;;;;;;4948844;28;20030;-72
2023/06/04 02:17:50;;;;;;;1999.90;999.90;;;19.70;99.90;;;;;;4951909;28;20019;-70
2023/06/04 02:20:18;;;;;;;1999.90;999.90;;;19.80;99.90;;;;;;4960013;28;20023;-72
2023/06/04 02:22:45;;;;;;;1999.90;999.90;;;19.80;99.90;;;;;;4960232;28;20151;-70
2023/06/04 02:25:13;;;;;;;1999.90;999.90;;;19.90;99.90;;;;;;4946638;28;20039;-70
2023/06/04 02:27:40;;;;;;;1999.90;999.90;;;20.00;99.90;;;;;;4955284;28;20049;-72
2023/06/04 02:30:08;;;;;;;1999.90;999.90;;;20.10;99.90;;;;;;4952405;28;20035;-69
2023/06/04 02:32:35;;;;;;;1999.90;999.90;;;20.20;99.90;;;;;;4947380;28;20352;-71
2023/06/04 02:35:04;;;;;;;1999.90;999.90;;;20.00;99.90;;;;;;4944476;28;20506;-70
2023/06/04 02:37:31;;;;;;;1999.90;999.90;;;19.80;99.90;;;;;;4938611;28;20036;-69
2023/06/04 02:39:58;;;;;;;1999.90;999.90;;;19.80;99.90;;;;;;4942001;28;20109;-69
2023/06/04 02:42:26;;;;;;;1999.90;999.90;;;19.70;99.90;;;;;;4944976;28;20019;-71
2023/06/04 02:44:53;;;;;;;1999.90;999.90;;;19.70;99.90;;;;;;4950388;28;20036;-74
2023/06/04 02:47:20;;;;;;;1999.90;999.90;;;19.70;99.90;;;;;;4944567;28;20056;-72
2023/06/04 02:49:48;;;;;;;1999.90;999.90;;;19.50;99.90;;;;;;4949848;28;20040;-77
2023/06/04 02:52:15;;;;;;;1999.90;999.90;;;19.40;99.90;;;;;;4945511;28;20047;-73
2023/06/04 02:54:42;;;;;;;1999.90;999.90;;;19.30;99.90;;;;;;4950212;28;20506;-76
2023/06/04 02:57:12;;;;;;;1999.90;999.90;;;19.20;99.90;;;;;;4948431;28;20055;-69
2023/06/04 02:59:40;;;;;;;1999.90;999.90;;;19.20;99.90;;;;;;4945595;28;20521;-72
2023/06/04 03:02:07;;;;;;;1999.90;999.90;;;19.20;99.90;;;;;;4948395;28;20028;-70
2023/06/04 03:04:35;;;;;;;1999.90;999.90;;;19.30;99.90;;;;;;4949536;28;20044;-71
2023/06/04 03:07:04;;;;;;;1999.90;999.90;;;19.30;99.90;;;;;;4944722;28;20031;-73
2023/06/04 03:09:34;;;;;;;1999.90;999.90;;;19.40;99.90;;;;;;4944945;28;20336;-71
2023/06/04 03:12:01;;;;;;;1999.90;999.90;;;19.30;99.90;;;;;;4941307;28;20393;-70
2023/06/04 03:14:32;;;;;;;1999.90;999.90;;;19.30;99.90;;;;;;4940980;28;20023;-70
2023/06/04 03:17:12;;;;;;;1999.90;999.90;;;19.20;99.90;;;;;;4938956;28;20039;-74
2023/06/04 03:19:41;;;;;;;1999.90;999.90;;;19.10;99.90;;;;;;4946066;28;20042;-71
2023/06/04 03:22:10;;;;;;;1999.90;999.90;;;19.00;99.90;;;;;;4942778;28;20085;-71
2023/06/04 03:24:42;;;;;;;1999.90;999.90;;;18.90;99.90;;;;;;4947239;28;20528;-70
2023/06/04 03:27:10;;;;;;;1999.90;999.90;;;18.90;99.90;;;;;;4947693;28;20030;-68
2023/06/04 03:29:38;;;;;;;1999.90;999.90;;;18.80;99.90;;;;;;4943055;28;20024;-69
2023/06/04 03:32:06;;;;;;;1999.90;999.90;;;18.70;99.90;;;;;;4943058;28;20031;-70
2023/06/04 03:34:34;;;;;;;1999.90;999.90;;;18.50;99.90;;;;;;4946938;28;20090;-71
2023/06/04 03:37:01;;;;;;;1999.90;999.90;;;18.50;99.90;;;;;;4945235;28;20028;-72
2023/06/04 03:39:28;;;;;;;1999.90;999.90;;;18.50;99.90;;;;;;4943684;28;20335;-70
2023/06/04 03:41:56;;;;;;;1999.90;999.90;;;18.50;99.90;;;;;;4938644;28;20114;-71
2023/06/04 03:44:24;;;;;;;1999.90;999.90;;;18.50;99.90;;;;;;4951268;28;20044;-70
2023/06/04 03:46:51;;;;;;;1999.90;999.90;;;18.50;99.90;;;;;;4940295;28;20510;-71
2023/06/04 03:49:19;;;;;;;1999.90;999.90;;;18.60;99.90;;;;;;4943051;28;20126;-69
2023/06/04 03:51:46;;;;;;;1999.90;999.90;;;18.60;99.90;;;;;;4951922;28;20548;-69
2023/06/04 03:54:16;;;;;;;1999.90;999.90;;;18.60;99.90;;;;;;4947278;28;20039;-70
2023/06/04 03:56:45;;;;;;;1999.90;999.90;;;18.60;99.90;;;;;;4957529;28;20069;-74
2023/06/04 03:59:12;;;;;;;1999.90;999.90;;;18.60;99.90;;;;;;4949164;28;20031;-68
2023/06/04 04:01:40;;;;;;;1999.90;999.90;;;18.50;99.90;;;;;;4943096;28;20047;-68
2023/06/04 04:04:07;;;;;;;1999.90;999.90;;;18.40;99.90;;;;;;4951974;28;20039;-70
2023/06/04 04:06:35;;;;;;;1999.90;999.90;;;18.30;99.90;;;;;;4947730;28;20027;-69
2023/06/04 04:09:04;;;;;;;1999.90;999.90;;;18.20;99.90;;;;;;4964259;28;20039;-69
2023/06/04 04:11:31;;;;;;;1999.90;999.90;;;18.10;99.90;;;;;;4956041;28;20513;-69
2023/06/04 04:13:58;;;;;;;1999.90;999.90;;;17.90;99.90;;;;;;4954059;28;20071;-69
2023/06/04 04:16:27;;;;;;;1999.90;999.90;;;17.90;99.90;;;;;;4939922;28;20031;-69
2023/06/04 04:18:55;;;;;;;1999.90;999.90;;;17.80;99.90;;;;;;4943873;28;20043;-71
2023/06/04 04:21:23;;;;;;;1999.90;999.90;;;17.80;99.90;;;;;;4940544;28;20736;-71
2023/06/04 04:23:51;;;;;;;1999.90;999.90;;;17.80;99.90;;;;;;4952836;28;20043;-70
2023/06/04 04:26:19;;;;;;;1999.90;999.90;;;17.80;99.90;;;;;;4950930;28;20034;-73
2023/06/04 04:28:46;;;;;;;1999.90;999.90;;;17.90;99.90;;;;;;4944819;28;20035;-71
2023/06/04 04:31:14;;;;;;;1999.90;999.90;;;17.90;99.90;;;;;;4943723;28;20172;-72
2023/06/04 04:33:41;;;;;;;1999.90;999.90;;;18.00;99.90;;;;;;4944076;28;20054;-70
2023/06/04 04:36:12;;;;;;;1999.90;999.90;;;18.10;99.90;;;;;;4946892;28;20368;-71
2023/06/04 04:38:39;;;;;;;1999.90;999.90;;;18.10;99.90;;;;;;4949108;28;20031;-69
2023/06/04 04:41:08;;;;;;;1999.90;999.90;;;18.10;99.90;;;;;;4941020;28;20051;-69
2023/06/04 04:43:39;;;;;;;1999.90;999.90;;;18.10;99.90;;;;;;4947021;28;20029;-71
2023/06/04 04:46:07;;;;;;;1999.90;999.90;;;18.20;99.90;;;;;;4947984;28;20035;-69
2023/06/04 04:48:34;;;;;;;1999.90;999.90;;;18.10;99.90;;;;;;4949050;28;20062;-73
2023/06/04 04:51:02;;;;;;;1999.90;999.90;;;17.90;99.90;;;;;;4945650;28;20394;-75
2023/06/04 04:53:29;;;;;;;1999.90;999.90;;;17.70;99.90;;;;;;4945701;28;20036;-72
2023/06/04 04:55:57;;;;;;;1999.90;999.90;;;17.60;99.90;;;;;;4943293;28;20079;-72
2023/06/04 04:58:25;;;;;;;1999.90;999.90;;;17.50;99.90;;;;;;4945385;28;20035;-69
2023/06/04 05:00:52;;;;;;;1999.90;999.90;;;17.40;99.90;;;;;;4942310;28;20039;-73
2023/06/04 05:03:19;;;;;;;1999.90;999.90;;;17.40;99.90;;;;;;4938313;28;20023;-72
2023/06/04 05:05:47;;;;;;;1999.90;999.90;;;17.30;99.90;;;;;;4939394;28;20046;-71
2023/06/04 05:08:14;;;;;;;1999.90;999.90;;;17.30;99.90;;;;;;4938146;28;20491;-71
2023/06/04 05:10:42;;;;;;;1999.90;999.90;;;17.30;99.90;;;;;;4941787;28;20451;-71
2023/06/04 05:13:10;;;;;;;1999.90;999.90;;;17.30;99.90;;;;;;4939945;28;20110;-75
2023/06/04 05:15:40;;;;;;;1999.90;999.90;;;17.30;99.90;;;;;;4945917;28;20043;-73
2023/06/04 05:18:07;;;;;;;1999.90;999.90;;;17.30;99.90;;;;;;4942187;28;20027;-72
2023/06/04 05:20:37;;;;;;;1999.90;999.90;;;17.30;99.90;;;;;;4943218;28;20035;-72
2023/06/04 05:23:05;;;;;;;1999.90;999.90;;;17.30;99.90;;;;;;4944526;28;20110;-72
2023/06/04 05:25:32;;;;;;;1999.90;999.90;;;17.30;99.90;;;;;;4947126;28;20020;-72
2023/06/04 05:28:00;;;;;;;1999.90;999.90;;;17.30;99.90;;;;;;4950109;28;20110;-75
2023/06/04 05:30:27;;;;;;;1999.90;999.90;;;17.30;99.90;;;;;;4944875;28;20027;-71
2023/06/04 05:32:55;;;;;;;1999.90;999.90;;;17.30;99.90;;;;;;4942889;28;20043;-74
2023/06/04 05:35:22;;;;;;;1999.90;999.90;;;17.30;99.90;;;;;;4942081;28;20074;-70
2023/06/04 05:37:53;;;;;;;1999.90;999.90;;;17.30;99.90;;;;;;4945115;28;20031;-73
2023/06/04 05:40:23;;;;;;;1999.90;999.90;;;17.20;99.90;;;;;;4946586;28;20040;-71
2023/06/04 05:42:51;;;;;;;1999.90;999.90;;;17.20;99.90;;;;;;4947594;28;20040;-70
2023/06/04 05:45:18;;;;;;;1999.90;999.90;;;17.20;99.90;;;;;;4948434;28;20039;-74
2023/06/04 05:47:45;;;;;;;1999.90;999.90;;;17.20;99.90;;;;;;4944514;28;20106;-72
2023/06/04 05:50:13;;;;;;;1999.90;999.90;;;17.20;99.90;;;;;;4944917;28;20032;-71
2023/06/04 05:52:40;;;;;;;1999.90;999.90;;;17.20;99.90;;;;;;4954979;28;20193;-71
2023/06/04 05:55:08;;;;;;;1999.90;999.90;;;17.20;99.90;;;;;;4958435;28;20027;-72
2023/06/04 05:57:36;;;;;;;1999.90;999.90;;;17.20;99.90;;;;;;4955975;28;20023;-73
2023/06/04 06:00:10;;;;;;;1999.90;999.90;;;17.20;99.90;;;;;;4948446;28;20034;-70
2023/06/04 06:02:38;;;;;;;1999.90;999.90;;;17.20;99.90;;;;;;4941034;28;20081;-73
2023/06/04 06:05:08;;;;;;;1999.90;999.90;;;17.20;99.90;;;;;;4944733;28;20490;-74
2023/06/04 06:07:38;;;;;;;1999.90;999.90;;;17.20;99.90;;;;;;4943164;28;20035;-72
2023/06/04 06:10:06;;;;;;;1999.90;999.90;;;17.20;99.90;;;;;;4941625;28;20386;-72
2023/06/04 06:12:34;;;;;;;1999.90;999.90;;;17.20;99.90;;;;;;4945092;28;20218;-72
2023/06/04 06:15:01;;;;;;;1999.90;999.90;;;17.20;99.90;;;;;;4938725;28;20066;-73
2023/06/04 06:17:28;;;;;;;1999.90;999.90;;;17.20;99.90;;;;;;4944601;28;21120;-71
2023/06/04 06:19:56;;;;;;;1999.90;999.90;;;17.10;99.90;;;;;;4945884;28;20120;-74
2023/06/04 06:22:24;;;;;;;1999.90;999.90;;;17.10;99.90;;;;;;4942282;28;20026;-70
2023/06/04 06:24:51;;;;;;;1999.90;999.90;;;17.00;99.90;;;;;;4938456;28;20182;-72
2023/06/04 06:27:18;;;;;;;1999.90;999.90;;;17.00;99.90;;;;;;4937209;28;20367;-70
2023/06/04 06:29:46;;;;;;;1999.90;999.90;;;17.00;99.90;;;;;;4943929;28;20030;-72
2023/06/04 06:32:13;;;;;;;1999.90;999.90;;;16.90;99.90;;;;;;4942854;28;20037;-70
2023/06/04 06:34:40;;;;;;;1999.90;999.90;;;16.90;99.90;;;;;;4943710;28;20034;-70
2023/06/04 06:37:09;;;;;;;1999.90;999.90;;;16.90;99.90;;;;;;4941492;28;20083;-71
2023/06/04 06:39:36;;;;;;;1999.90;999.90;;;16.90;99.90;;;;;;4943239;28;20033;-71
2023/06/04 06:42:04;;;;;;;1999.90;999.90;;;16.80;99.90;;;;;;4947431;28;20046;-72
2023/06/04 06:44:31;;;;;;;1999.90;999.90;;;16.80;99.90;;;;;;4938115;28;20113;-72
2023/06/04 06:46:58;;;;;;;1999.90;999.90;;;16.80;99.90;;;;;;4945700;28;20031;-71
2023/06/04 06:49:26;;;;;;;1999.90;999.90;;;16.70;99.90;;;;;;4943211;28;20039;-72
2023/06/04 06:51:53;;;;;;;1999.90;999.90;;;16.70;99.90;;;;;;4946101;28;20043;-71
2023/06/04 06:54:21;;;;;;;1999.90;999.90;;;16.60;99.90;;;;;;4946607;28;20482;-72
2023/06/04 06:56:51;;;;;;;1999.90;999.90;;;16.60;99.90;;;;;;4942120;28;20359;-74
2023/06/04 06:59:19;;;;;;;1999.90;999.90;;;16.50;99.90;;;;;;4942692;28;20028;-71
2023/06/04 07:01:47;;;;;;;1999.90;999.90;;;16.50;99.90;;;;;;4912386;28;20100;-69
2023/06/04 07:04:14;;;;;;;1999.90;999.90;;;16.40;99.90;;;;;;4942667;28;20051;-71
2023/06/04 07:06:42;;;;;;;1999.90;999.90;;;16.40;99.90;;;;;;4944744;28;20102;-69
2023/06/04 07:09:09;;;;;;;1999.90;999.90;;;16.40;99.90;;;;;;4949121;28;20035;-72
2023/06/04 07:11:36;;;;;;;1999.90;999.90;;;16.30;99.90;;;;;;4942497;28;20047;-72
2023/06/04 07:14:04;;;;;;;1999.90;999.90;;;16.30;99.90;;;;;;4943600;28;20109;-73
2023/06/04 07:16:31;;;;;;;1999.90;999.90;;;16.20;99.90;;;;;;4945109;28;20039;-75
2023/06/04 07:18:59;;;;;;;1999.90;999.90;;;16.20;99.90;;;;;;4948860;28;20036;-74
2023/06/04 07:21:26;;;;;;;1999.90;999.90;;;16.20;99.90;;;;;;4945128;28;20709;-70
2023/06/04 07:23:53;;;;;;;1999.90;999.90;;;16.10;99.90;;;;;;4943092;28;20042;-70
2023/06/04 07:26:21;;;;;;;1999.90;999.90;;;16.10;99.90;;;;;;4941919;28;20035;-71
2023/06/04 07:28:49;;;;;;;1999.90;999.90;;;16.10;99.90;;;;;;4949456;28;20101;-69
2023/06/04 07:31:17;;;;;;;1999.90;999.90;;;16.00;99.90;;;;;;4943859;28;20037;-72
2023/06/04 07:33:44;;;;;;;1999.90;999.90;;;16.00;99.90;;;;;;4942425;28;20126;-72
2023/06/04 07:36:13;;;;;;;1999.90;999.90;;;16.00;99.90;;;;;;4947517;28;20390;-70
2023/06/04 07:38:41;;;;;;;1999.90;999.90;;;16.00;99.90;;;;;;4949191;28;20031;-74
2023/06/04 07:41:09;;;;;;;1999.90;999.90;;;16.00;99.90;;;;;;4956939;28;20163;-70
2023/06/04 07:43:36;;;;;;;1999.90;999.90;;;16.00;99.90;;;;;;4956079;28;20055;-69
2023/06/04 07:46:05;;;;;;;1999.90;999.90;;;16.10;99.90;;;;;;4944907;28;20035;-72
2023/06/04 07:48:32;;;;;;;1999.90;999.90;;;16.10;99.90;;;;;;4950107;28;20109;-72
2023/06/04 07:51:01;;;;;;;1999.90;999.90;;;16.10;99.90;;;;;;4948215;28;20590;-72
2023/06/04 07:53:28;;;;;;;1999.90;999.90;;;16.10;99.90;;;;;;4951981;28;20406;-74
2023/06/04 07:55:56;;;;;;;1999.90;999.90;;;16.10;99.90;;;;;;4947501;28;20475;-76
2023/06/04 07:58:25;;;;;;;1999.90;999.90;;;16.10;99.90;;;;;;4950072;28;20036;-71
2023/06/04 08:00:53;;;;;;;1999.90;999.90;;;16.10;99.90;;;;;;4948547;28;20051;-73
2023/06/04 08:03:21;;;;;;;1999.90;999.90;;;16.10;99.90;;;;;;4952073;28;20028;-73
2023/06/04 08:05:48;;;;;;;1999.90;999.90;;;16.10;99.90;;;;;;4942937;28;20063;-72
2023/06/04 08:08:15;;;;;;;1999.90;999.90;;;16.00;99.90;;;;;;4946220;28;20097;-75
2023/06/04 08:10:43;;;;;;;1999.90;999.90;;;16.00;99.90;;;;;;4945797;28;20039;-73
2023/06/04 08:13:10;;;;;;;1999.90;999.90;;;16.10;99.90;;;;;;4941869;28;20126;-71
2023/06/04 08:15:37;;;;;;;1999.90;999.90;;;16.10;99.90;;;;;;4946208;28;20065;-73
2023/06/04 08:18:05;;;;;;;1999.90;999.90;;;16.10;99.90;;;;;;4945700;28;20042;-71
2023/06/04 08:20:32;;;;;;;1999.90;999.90;;;16.10;99.90;;;;;;4940393;28;20034;-69
2023/06/04 08:23:00;;;;;;;1999.90;999.90;;;16.10;99.90;;;;;;4942936;28;20063;-70
2023/06/04 08:25:27;;;;;;;1999.90;999.90;;;16.10;99.90;;;;;;4945340;28;20048;-69
2023/06/04 08:27:54;;;;;;;1999.90;999.90;;;16.10;99.90;;;;;;4944719;28;20074;-69
2023/06/04 08:30:22;;;;;;;1999.90;999.90;;;16.10;99.90;;;;;;4945369;28;20027;-74
2023/06/04 08:32:50;;;;;;;1999.90;999.90;;;16.00;99.90;;;;;;4940424;28;20387;-72
2023/06/04 08:35:17;;;;;;;1999.90;999.90;;;15.90;99.90;;;;;;4947418;28;20028;-70
2023/06/04 08:37:44;;;;;;;1999.90;999.90;;;15.90;99.90;;;;;;4943892;28;20079;-68
2023/06/04 08:40:13;;;;;;;1999.90;999.90;;;15.80;99.90;;;;;;4945000;28;20039;-69
2023/06/04 08:42:47;;;;;;;1999.90;999.90;;;15.70;99.90;;;;;;4949250;28;20083;-71
2023/06/04 08:45:18;;;;;;;1999.90;999.90;;;15.70;99.90;;;;;;4944198;28;20047;-71
2023/06/04 08:47:49;;;;;;;1999.90;999.90;;;15.70;99.90;;;;;;4948260;28;20102;-69
2023/06/04 08:50:19;;;;;;;1999.90;999.90;;;15.60;99.90;;;;;;4943358;28;20027;-70
2023/06/04 08:52:47;;;;;;;1999.90;999.90;;;15.70;99.90;;;;;;4942659;28;20054;-72
2023/06/04 08:55:15;;;;;;;1999.90;999.90;;;15.70;99.90;;;;;;4944917;28;20037;-70
2023/06/04 08:57:43;;;;;;;1999.90;999.90;;;15.60;99.90;;;;;;4941862;28;20031;-72
2023/06/04 09:00:12;;;;;;;1999.90;999.90;;;15.60;99.90;;;;;;4939540;28;20379;-70
2023/06/04 09:02:40;;;;;;;1999.90;999.90;;;15.60;99.90;;;;;;4938378;28;20067;-69
2023/06/04 09:05:11;;;;;;;1999.90;999.90;;;15.60;99.90;;;;;;4947306;28;20514;-70
2023/06/04 09:07:41;;;;;;;1999.90;999.90;;;15.50;99.90;;;;;;4936835;28;20027;-72
2023/06/04 09:10:10;;;;;;;1999.90;999.90;;;15.50;99.90;;;;;;4942487;28;20038;-75
2023/06/04 09:12:44;;;;;;;1999.90;999.90;;;15.50;99.90;;;;;;4941973;28;20019;-70
2023/06/04 09:15:11;;;;;;;1999.90;999.90;;;15.50;99.90;;;;;;4944926;28;20038;-71
2023/06/04 09:17:39;;;;;;;1999.90;999.90;;;15.50;99.90;;;;;;4942171;28;20031;-74
2023/06/04 09:20:09;;;;;;;1999.90;999.90;;;15.50;99.90;;;;;;4944487;28;20194;-72
2023/06/04 09:22:37;;;;;;;1999.90;999.90;;;15.60;99.90;;;;;;4948137;28;20038;-72
2023/06/04 09:25:10;;;;;;;1999.90;999.90;;;15.60;99.90;;;;;;4961023;28;20062;-75
2023/06/04 09:27:41;;;;;;;1999.90;999.90;;;15.60;99.90;;;;;;4957643;28;20110;-75
2023/06/04 09:30:09;;;;;;;1999.90;999.90;;;15.60;99.90;;;;;;4941336;28;20126;-75
2023/06/04 09:32:37;;;;;;;1999.90;999.90;;;15.60;99.90;;;;;;4952676;28;20022;-75
2023/06/04 09:35:11;;;;;;;1999.90;999.90;;;15.60;99.90;;;;;;4952110;28;20032;-76
2023/06/04 09:37:39;;;;;;;1999.90;999.90;;;15.60;99.90;;;;;;4946601;28;20023;-73
2023/06/04 09:40:08;;;;;;;1999.90;999.90;;;15.60;99.90;;;;;;4943628;28;20082;-72
2023/06/04 09:42:46;;;;;;;1999.90;999.90;;;15.60;99.90;;;;;;4948104;28;20028;-70
2023/06/04 09:45:13;;;;;;;1999.90;999.90;;;15.50;99.90;;;;;;4946916;28;20595;-70
2023/06/04 09:47:45;;;;;;;1999.90;999.90;;;15.50;99.90;;;;;;4940966;28;20042;-72
2023/06/04 09:50:12;;;;;;;1999.90;999.90;;;15.50;99.90;;;;;;4947184;28;20031;-73
2023/06/04 09:52:40;;;;;;;1999.90;999.90;;;15.50;99.90;;;;;;4942869;28;20051;-70
2023/06/04 09:55:22;;;;;;;1999.90;999.90;;;15.60;99.90;;;;;;4944057;28;20039;-74
2023/06/04 09:57:50;;;;;;;1999.90;999.90;;;15.60;99.90;;;;;;4951440;28;20067;-71
2023/06/04 10:00:23;;;;;;;1999.90;999.90;;;15.60;99.90;;;;;;4946676;28;20446;-79
2023/06/04 10:02:57;;;;;;;1999.90;999.90;;;15.50;99.90;;;;;;4944157;28;20024;-71
2023/06/04 10:05:25;;;;;;;1999.90;999.90;;;15.50;99.90;;;;;;4943177;28;20518;-74
2023/06/04 10:07:55;;;;;;;1999.90;999.90;;;15.60;99.90;;;;;;4953741;28;20035;-71
2023/06/04 10:10:26;;;;;;;1999.90;999.90;;;15.50;99.90;;;;;;4947357;28;20042;-74
2023/06/04 10:13:17;;;;;;;1999.90;999.90;;;15.50;99.90;;;;;;4947389;28;20111;-70
2023/06/04 10:15:45;;;;;;;1999.90;999.90;;;15.50;99.90;;;;;;4944840;28;20415;-74
2023/06/04 10:18:16;;;;;;;1999.90;999.90;;;15.50;99.90;;;;;;4942884;28;20130;-70
2023/06/04 10:20:44;;;;;;;1999.90;999.90;;;15.50;99.90;;;;;;4943977;28;20023;-70
2023/06/04 10:23:13;;;;;;;1999.90;999.90;;;15.50;99.90;;;;;;4951407;28;20035;-73
2023/06/04 10:25:40;;;;;;;1999.90;999.90;;;15.50;99.90;;;;;;4945710;28;20142;-69
2023/06/04 10:28:08;;;;;;;1999.90;999.90;;;15.50;99.90;;;;;;4945602;28;20118;-69
2023/06/04 10:30:35;;;;;;;1999.90;999.90;;;15.50;99.90;;;;;;4945409;28;20043;-69
2023/06/04 10:33:03;;;;;;;1999.90;999.90;;;15.50;99.90;;;;;;4942306;28;20435;-69
2023/06/04 10:35:32;;;;;;;1999.90;999.90;;;15.50;99.90;;;;;;4943039;28;20027;-76
2023/06/04 10:38:10;;;;;;;1999.90;999.90;;;15.50;99.90;;;;;;4948110;28;20039;-74
2023/06/04 10:40:39;;;;;;;1999.90;999.90;;;15.60;99.90;;;;;;4947344;28;20031;-74
2023/06/04 10:43:18;;;;;;;1999.90;999.90;;;15.50;99.90;;;;;;4932055;28;20055;-72
2023/06/04 10:45:46;;;;;;;1999.90;999.90;;;15.60;99.90;;;;;;4949403;28;20041;-75
2023/06/04 10:48:14;;;;;;;1999.90;999.90;;;15.60;99.90;;;;;;4952025;28;20090;-71
2023/06/04 10:50:53;;;;;;;1999.90;999.90;;;15.50;99.90;;;;;;4951298;28;20031;-72
2023/06/04 10:53:21;;;;;;;1999.90;999.90;;;15.50;99.90;;;;;;4950803;28;20035;-69
2023/06/04 10:55:50;;;;;;;1999.90;999.90;;;15.50;99.90;;;;;;4952476;28;20027;-75
2023/06/04 10:58:17;;;;;;;1999.90;999.90;;;15.50;99.90;;;;;;4953173;28;20387;-71
2023/06/04 11:00:49;;;;;;;1999.90;999.90;;;15.40;99.90;;;;;;4951897;28;20418;-72
2023/06/04 11:03:17;;;;;;;1999.90;999.90;;;15.30;99.90;;;;;;4947294;28;20035;-71
2023/06/04 11:05:46;;;;;;;1999.90;999.90;;;15.20;99.90;;;;;;4952452;28;20069;-72
2023/06/04 11:08:14;;;;;;;1999.90;999.90;;;15.20;99.90;;;;;;4953469;28;20662;-72
2023/06/04 11:10:44;;;;;;;1999.90;999.90;;;15.10;99.90;;;;;;4960986;28;20038;-71
2023/06/04 11:13:12;;;;;;;1999.90;999.90;;;15.10;99.90;;;;;;4947421;28;20037;-72
2023/06/04 11:15:42;;;;;;;1999.90;999.90;;;15.00;99.90;;;;;;4942166;28;20500;-73
2023/06/04 11:18:16;;;;;;;1999.90;999.90;;;15.00;99.90;;;;;;4951699;28;20037;-71
2023/06/04 11:20:48;;;;;;;1999.90;999.90;;;15.00;99.90;;;;;;4947427;28;20055;-79
2023/06/04 11:23:17;;;;;;;1999.90;999.90;;;15.00;99.90;;;;;;4947285;28;20091;-72
2023/06/04 11:25:45;;;;;;;1999.90;999.90;;;15.00;99.90;;;;;;4953127;28;20474;-76
2023/06/04 11:28:21;;;;;;;1999.90;999.90;;;15.00;99.90;;;;;;4948455;28;20027;-74
2023/06/04 11:31:05;;;;;;;;;;;15.00;99.90;;;;;;4948052;28;20035;-72
2023/06/04 11:33:52;;;;;;;1999.90;999.90;;;15.00;99.90;;;;;;4941416;28;19918;-73
2023/06/04 11:36:30;;;;;;;1999.90;999.90;;;15.00;99.90;;;;;;4942040;28;20035;-72
2023/06/04 11:39:00;;;;;;;1999.90;999.90;;;15.00;99.90;;;;;;4942436;28;20036;-70
2023/06/04 11:41:35;;;;;;;1999.90;999.90;;;15.10;99.90;;;;;;4940950;28;20043;-72
2023/06/04 11:44:07;;;;;;;1999.90;999.90;;;15.00;99.90;;;;;;4944863;28;20035;-73
2023/06/04 11:46:34;;;;;;;1999.90;999.90;;;15.10;99.90;;;;;;4938297;28;20031;-73
2023/06/04 11:49:04;;;;;;;1999.90;999.90;;;15.10;99.90;;;;;;4942545;28;20059;-70
2023/06/04 11:51:33;;;;;;;1999.90;999.90;;;15.10;99.90;;;;;;4942812;28;20063;-72
2023/06/04 11:54:01;;;;;;;1999.90;999.90;;;15.10;99.90;;;;;;4926047;28;20078;-73
2023/06/04 11:56:28;;;;;;;1999.90;999.90;;;15.10;99.90;;;;;;4938957;28;20561;-72
2023/06/04 11:58:56;;;;;;;1999.90;999.90;;;15.10;99.90;;;;;;4946104;28;20046;-71
2023/06/04 12:01:28;;;;;;;1999.90;999.90;;;15.10;99.90;;;;;;4943834;28;20031;-72
2023/06/04 12:03:55;;;;;;;1999.90;999.90;;;15.10;99.90;;;;;;4939512;28;20032;-71
2023/06/04 12:06:23;;;;;;;1999.90;999.90;;;15.10;99.90;;;;;;4941124;28;20024;-75